Time;durP1;ratioP1;P1;durP2;ratioP2;P2;SDS_P1;SDS_P2;PMS_P1;PMS_P2;Temp;Humidity;BMP_temperature;BMP_pressure;BME280_temperature;BME280_humidity;BME280_pressure;Samples;Min_cycle;Max_cycle;Signal;HPM_P1;HPM_P2
2022/12/24 00:01:24;;;;;;;;;;;;;;;2.17;100.00;99033.34;1661524;85;21415;-73
2022/12/24 00:03:51;;;;;;;64.58;39.03;;;;;;;2.20;100.00;99030.19;1660844;85;20184;-73
2022/12/24 00:06:20;;;;;;;58.48;40.08;;;;;;;2.17;100.00;99021.78;1694786;83;22212;-74
2022/12/24 00:08:47;;;;;;;65.00;41.73;;;;;;;2.15;100.00;99031.44;1700172;83;21584;-73
2022/12/24 00:11:14;;;;;;;69.00;42.65;;;;;;;2.10;100.00;99025.94;1704903;83;21157;-74
2022/12/24 00:13:40;;;;;;;69.40;42.75;;;;;;;2.06;100.00;99021.26;1697917;83;21581;-73
2022/12/24 00:16:07;;;;;;;71.82;45.45;;;;;;;2.06;100.00;99019.40;1703257;83;21019;-74
2022/12/24 00:18:34;;;;;;;66.53;43.15;;;;;;;2.10;100.00;99013.03;1694264;83;21141;-73
2022/12/24 00:21:02;;;;;;;63.98;40.90;;;;;;;2.11;100.00;99022.21;1698823;83;21502;-74
2022/12/24 00:23:29;;;;;;;63.70;41.10;;;;;;;2.11;100.00;99026.76;1682266;85;21520;-73
2022/12/24 00:25:55;;;;;;;64.17;41.88;;;;;;;2.12;100.00;99023.85;1683207;85;21676;-74
2022/12/24 00:28:22;;;;;;;64.35;41.85;;;;;;;2.09;100.00;99026.98;1678375;84;21115;-74
2022/12/24 00:30:48;;;;;;;67.67;41.88;;;;;;;2.08;100.00;99028.58;1662695;85;21022;-74
2022/12/24 00:33:15;;;;;;;66.15;42.88;;;;;;;2.08;100.00;99027.23;1658654;85;21074;-74
2022/12/24 00:35:42;;;;;;;;;;;;;;;2.11;100.00;99022.73;1703210;83;21556;-74
2022/12/24 00:38:08;;;;;;;65.60;41.28;;;;;;;2.12;100.00;99017.14;1710157;83;20497;-74
2022/12/24 00:40:36;;;;;;;65.42;40.83;;;;;;;2.08;100.00;99008.44;1712992;83;21645;-75
2022/12/24 00:43:02;;;;;;;66.67;43.28;;;;;;;2.02;100.00;99010.73;1701674;83;21138;-74
2022/12/24 00:45:30;;;;;;;64.92;42.55;;;;;;;1.96;100.00;99011.94;1706488;83;22179;-74
2022/12/24 00:47:56;;;;;;;65.55;41.53;;;;;;;1.99;100.00;99010.64;1700421;83;21110;-74
2022/12/24 00:50:23;;;;;;;64.07;40.45;;;;;;;1.99;100.00;99010.64;1705027;83;20979;-74
2022/12/24 00:52:49;;;;;;;64.50;41.90;;;;;;;1.97;100.00;99003.37;1684800;84;21083;-74
2022/12/24 00:55:16;;;;;;;;;;;;;;;2.03;100.00;99009.13;1696324;83;21051;-74
2022/12/24 00:57:42;;;;;;;69.80;40.43;;;;;;;1.99;100.00;99014.67;1691785;83;20465;-74
2022/12/24 01:00:09;;;;;;;68.25;43.02;;;;;;;1.89;100.00;99013.10;1718032;83;21004;-73
2022/12/24 01:02:36;;;;;;;70.08;41.65;;;;;;;1.92;100.00;99012.63;1709055;83;21506;-73
2022/12/24 01:05:10;;;;;;;61.77;40.73;;;;;;;1.99;100.00;99011.47;1707575;83;21605;-74
2022/12/24 01:07:42;;;;;;;61.00;39.50;;;;;;;2.06;100.00;99003.81;1691740;83;21011;-74
2022/12/24 01:10:10;;;;;;;66.10;41.50;;;;;;;2.07;100.00;99007.62;1699057;83;20975;-74
2022/12/24 01:12:36;;;;;;;62.75;40.83;;;;;;;2.06;100.00;99012.69;1713966;83;21078;-74
2022/12/24 01:15:03;;;;;;;67.72;40.55;;;;;;;2.06;100.00;99015.37;1706406;83;21019;-74
2022/12/24 01:17:32;;;;;;;62.23;39.35;;;;;;;2.12;100.00;99019.83;1712011;83;21067;-75
2022/12/24 01:19:59;;;;;;;60.80;39.55;;;;;;;2.19;100.00;99021.86;1711298;83;20991;-75
2022/12/24 01:22:25;;;;;;;62.30;38.20;;;;;;;2.25;100.00;99025.47;1692945;83;21588;-75
2022/12/24 01:24:52;;;;;;;58.15;37.60;;;;;;;2.28;100.00;99032.52;1699821;83;21027;-74
2022/12/24 01:27:18;;;;;;;58.05;38.25;;;;;;;2.28;100.00;99024.47;1708802;83;21051;-75
2022/12/24 01:29:44;;;;;;;60.23;38.65;;;;;;;2.28;100.00;99024.47;1696964;83;20955;-74
2022/12/24 01:32:11;;;;;;;;;;;;;;;2.29;100.00;99028.80;1708214;83;21130;-75
2022/12/24 01:34:37;;;;;;;61.05;37.45;;;;;;;2.36;100.00;99018.74;1702587;83;20138;-74
2022/12/24 01:37:03;;;;;;;61.63;38.33;;;;;;;2.37;100.00;99019.02;1692156;83;21031;-75
2022/12/24 01:39:31;;;;;;;58.17;38.35;;;;;;;2.39;100.00;99013.42;1705845;83;21074;-75
2022/12/24 01:44:43;;;;;;;61.35;38.02;;;;;;;2.37;100.00;99006.92;1674108;85;21433;-74
2022/12/24 01:47:21;;;;;;;54.23;36.65;;;;;;;2.40;100.00;99003.80;1707719;83;21003;-75
2022/12/24 01:49:55;;;;;;;55.92;35.13;;;;;;;2.46;100.00;99000.67;1696482;83;21067;-74
2022/12/24 01:52:33;;;;;;;51.90;35.48;;;;;;;2.53;100.00;99000.02;1691294;83;21091;-74
2022/12/24 01:55:07;;;;;;;56.28;36.40;;;;;;;2.57;100.00;99005.20;1687848;84;21442;-74
2022/12/24 01:57:40;;;;;;;54.98;37.10;;;;;;;2.58;100.00;99005.50;1666582;85;21060;-74
2022/12/24 02:00:10;;;;;;;56.15;35.88;;;;;;;2.62;100.00;99001.81;1695887;84;21526;-74
2022/12/24 02:02:39;;;;;;;53.10;35.85;;;;;;;2.67;100.00;98999.21;1694072;84;21068;-74
2022/12/24 02:05:11;;;;;;;52.90;35.30;;;;;;;2.71;100.00;99005.22;1683172;84;21032;-75
2022/12/24 02:07:38;;;;;;;53.25;35.38;;;;;;;2.73;100.00;98996.94;1679620;84;21946;-75
2022/12/24 02:10:10;;;;;;;54.00;35.65;;;;;;;2.70;100.00;99002.76;1691618;84;21064;-75
2022/12/24 02:12:37;;;;;;;53.92;35.68;;;;;;;2.65;100.00;98999.47;1684484;84;21162;-74
2022/12/24 02:15:07;;;;;;;57.70;37.30;;;;;;;2.62;100.00;99003.16;1685914;84;21023;-75
2022/12/24 02:17:55;;;;;;;56.88;35.88;;;;;;;2.65;100.00;98999.98;1681797;84;21709;-75
2022/12/24 02:21:08;;;;;;;53.08;35.05;;;;;;;2.72;100.00;99002.02;1677557;84;21733;-75
2022/12/24 02:23:52;;;;;;;50.83;34.38;;;;;;;2.74;100.00;99001.23;1686270;84;21142;-75
2022/12/24 02:26:46;;;;;;;50.48;33.60;;;;;;;2.74;100.00;98996.68;1689433;84;21059;-74
2022/12/24 02:29:21;;;;;;;57.08;35.50;;;;;;;2.70;100.00;98992.83;1690075;84;21824;-74
2022/12/24 02:31:58;;;;;;;52.33;34.67;;;;;;;2.69;100.00;98995.25;1692165;84;21099;-74
2022/12/24 02:34:37;;;;;;;;;;;;;;;2.72;100.00;98985.89;1692292;84;21032;-75
2022/12/24 02:37:20;;;;;;;52.10;33.73;;;;;;;2.77;100.00;98976.03;1696107;84;20143;-75
2022/12/24 02:40:02;;;;;;;52.83;33.58;;;;;;;2.77;100.00;98978.73;1687833;84;21048;-75
2022/12/24 02:42:39;;;;;;;50.83;33.42;;;;;;;2.80;100.00;98984.17;1690107;84;21051;-74
2022/12/24 02:45:15;;;;;;;51.42;34.58;;;;;;;2.79;100.00;98988.73;1687494;83;21028;-74
2022/12/24 02:47:42;;;;;;;51.42;33.50;;;;;;;2.77;100.00;98984.10;1682668;84;21115;-74
2022/12/24 02:50:11;;;;;;;50.52;33.70;;;;;;;2.83;100.00;98993.09;1682448;84;20968;-74
2022/12/24 02:52:43;;;;;;;52.43;34.43;;;;;;;2.90;100.00;98999.97;1652874;85;21099;-74
2022/12/24 02:55:41;;;;;;;50.20;34.53;;;;;;;2.95;100.00;98980.41;1649536;86;21082;-74
2022/12/24 02:58:26;;;;;;;52.60;33.00;;;;;;;2.92;100.00;98984.92;1679009;84;21182;-75
2022/12/24 03:01:25;;;;;;;55.52;35.40;;;;;;;2.82;100.00;98980.17;1681095;84;21092;-75
2022/12/24 03:04:09;;;;;;;51.73;34.13;;;;;;;2.80;100.00;98984.17;1690134;84;21110;-74
2022/12/24 03:06:59;;;;;;;50.95;33.48;;;;;;;2.83;100.00;98985.03;1692646;84;21028;-75
2022/12/24 03:09:34;;;;;;;52.53;34.33;;;;;;;2.83;100.00;98984.51;1694510;84;21091;-74
2022/12/24 03:12:09;;;;;;;52.98;35.43;;;;;;;2.82;100.00;98991.45;1691493;84;21071;-74
2022/12/24 03:14:35;;;;;;;54.05;35.30;;;;;;;2.81;100.00;98995.19;1693739;84;21094;-75
2022/12/24 03:17:02;;;;;;;52.70;34.95;;;;;;;2.80;100.00;98987.65;1663386;85;21099;-75
2022/12/24 03:19:28;;;;;;;53.28;34.78;;;;;;;2.83;100.00;98981.00;1664535;85;21558;-74
2022/12/24 03:21:56;;;;;;;52.23;34.98;;;;;;;2.89;100.00;98989.44;1692097;84;21644;-75
2022/12/24 03:24:22;;;;;;;48.70;33.20;;;;;;;2.95;100.00;98977.72;1680077;84;21587;-75
2022/12/24 03:26:49;;;;;;;53.08;35.43;;;;;;;2.99;100.00;98978.88;1698486;84;21464;-74
2022/12/24 03:29:16;;;;;;;;;;;;;;;2.95;100.00;98977.19;1649777;85;21079;-75
2022/12/24 03:31:47;;;;;;;54.00;36.17;;;;;;;2.91;100.00;98979.25;1640748;86;20295;-74
2022/12/24 03:34:14;;;;;;;54.93;36.28;;;;;;;2.79;100.00;98975.28;1677920;84;21099;-75
2022/12/24 03:36:41;;;;;;;56.40;36.77;;;;;;;2.79;100.00;98987.91;1684394;84;22471;-74
2022/12/24 03:39:08;;;;;;;53.75;34.30;;;;;;;2.83;100.00;98991.75;1683657;84;21012;-74
2022/12/24 03:41:35;;;;;;;51.92;34.55;;;;;;;2.89;100.00;98987.57;1692934;84;21004;-74
2022/12/24 03:44:02;;;;;;;54.53;35.52;;;;;;;2.96;100.00;98990.93;1681568;84;21536;-74
2022/12/24 03:46:28;;;;;;;;;;;;;;;2.99;100.00;98986.94;1684490;84;21475;-75
2022/12/24 03:48:55;;;;;;;53.80;35.70;;;;;;;2.97;100.00;98986.38;1682791;84;20135;-74
2022/12/24 03:51:23;;;;;;;53.60;35.38;;;;;;;2.79;100.00;98972.59;1683894;84;20984;-74
2022/12/24 03:53:55;;;;;;;52.27;34.53;;;;;;;2.84;100.00;98980.74;1683531;84;21019;-74
2022/12/24 03:56:22;;;;;;;50.88;34.13;;;;;;;2.88;100.00;98987.80;1689413;84;21550;-75
2022/12/24 03:58:48;;;;;;;49.03;32.78;;;;;;;2.93;100.00;98983.88;1679551;84;21100;-74
2022/12/24 04:01:15;;;;;;;49.15;34.08;;;;;;;2.96;100.00;98986.08;1685043;84;21008;-74
2022/12/24 04:03:42;;;;;;;53.35;35.88;;;;;;;2.93;100.00;98983.35;1682917;84;21115;-74
2022/12/24 04:06:12;;;;;;;55.12;36.00;;;;;;;2.91;100.00;98981.94;1686564;84;20992;-74
2022/12/24 04:08:38;;;;;;;53.30;34.67;;;;;;;2.94;100.00;98986.86;1685402;84;21063;-74
2022/12/24 04:11:10;;;;;;;49.83;33.20;;;;;;;2.94;100.00;98976.89;1678043;84;21052;-74
2022/12/24 04:13:38;;;;;;;50.38;34.00;;;;;;;2.97;100.00;98972.94;1683058;84;21915;-74
2022/12/24 04:16:08;;;;;;;50.98;33.08;;;;;;;2.97;100.00;98971.59;1677999;84;21008;-74
2022/12/24 04:18:35;;;;;;;52.55;34.95;;;;;;;2.92;100.00;98975.52;1693381;84;21633;-74
2022/12/24 04:21:02;;;;;;;51.13;35.00;;;;;;;2.87;100.00;98972.19;1676979;84;20996;-74
2022/12/24 04:23:31;;;;;;;50.78;33.55;;;;;;;2.86;100.00;98967.89;1694249;84;21119;-74
2022/12/24 04:26:01;;;;;;;49.45;33.50;;;;;;;2.89;100.00;98969.28;1676561;84;20960;-74
2022/12/24 04:28:29;;;;;;;49.75;32.75;;;;;;;2.91;100.00;98967.97;1687329;84;21083;-74
2022/12/24 04:31:01;;;;;;;50.55;33.38;;;;;;;2.95;100.00;98972.34;1687360;84;21028;-73
2022/12/24 04:33:28;;;;;;;49.30;32.73;;;;;;;2.93;100.00;98964.53;1658772;84;21126;-74
2022/12/24 04:35:57;;;;;;;53.83;34.40;;;;;;;2.88;100.00;98965.77;1694258;84;21481;-74
2022/12/24 04:38:23;;;;;;;49.73;32.70;;;;;;;2.88;100.00;98968.98;1667575;84;21047;-74
2022/12/24 04:41:00;;;;;;;;;;;;;;;2.90;100.00;98966.36;1685479;84;21434;-74
2022/12/24 04:43:27;;;;;;;47.93;32.53;;;;;;;2.92;100.00;98966.92;1697133;84;20180;-74
2022/12/24 04:45:54;;;;;;;48.00;33.08;;;;;;;2.88;100.00;98960.91;1661536;84;21081;-73
2022/12/24 04:48:21;;;;;;;53.38;35.65;;;;;;;2.86;100.00;98958.48;1694909;84;21139;-74
2022/12/24 04:50:47;;;;;;;51.45;34.48;;;;;;;2.82;100.00;98954.64;1652397;85;21499;-74
2022/12/24 04:53:13;;;;;;;;;;;;;;;2.83;100.00;98963.53;1648062;86;22048;-74
2022/12/24 04:55:45;;;;;;;50.03;31.37;;;;;;;2.89;100.00;98965.25;1687423;84;20168;-73
2022/12/24 04:58:13;;;;;;;46.75;31.75;;;;;;;2.90;100.00;98960.16;1654412;85;21111;-74
2022/12/24 05:00:41;;;;;;;47.03;32.50;;;;;;;2.92;100.00;98958.86;1687646;84;21118;-74
2022/12/24 05:03:07;;;;;;;48.80;33.53;;;;;;;2.93;100.00;98963.71;1691978;84;21070;-74
2022/12/24 05:05:35;;;;;;;49.77;33.10;;;;;;;2.91;100.00;98961.77;1697154;83;21099;-74
2022/12/24 05:08:02;;;;;;;;;;;;;;;2.91;100.00;98957.74;1696674;83;21544;-75
2022/12/24 05:10:30;;;;;;;48.38;32.48;;;;;;;2.93;100.00;98958.34;1699693;84;20489;-74
2022/12/24 05:12:56;;;;;;;52.25;34.35;;;;;;;2.90;100.00;98960.98;1698501;84;21147;-74
2022/12/24 05:15:24;;;;;;;49.30;34.35;;;;;;;2.92;100.00;98960.20;1679953;84;21071;-73
2022/12/24 05:17:53;;;;;;;48.68;32.65;;;;;;;2.92;100.00;98962.07;1693263;84;21127;-73
2022/12/24 05:20:20;;;;;;;51.37;34.48;;;;;;;2.90;100.00;98963.67;1692901;84;21012;-73
2022/12/24 05:28:19;;;;;;;50.78;32.35;;;;;;;3.04;100.00;98966.88;1687419;84;21074;-72
2022/12/24 05:30:48;;;;;;;49.45;32.55;;;;;;;3.05;100.00;98981.14;1696023;84;21011;-72
2022/12/24 05:33:14;;;;;;;50.88;33.28;;;;;;;3.01;100.00;98982.94;1690477;83;21548;-72
2022/12/24 05:35:40;;;;;;;49.38;33.20;;;;;;;3.00;100.00;98985.89;1709743;84;21031;-72
2022/12/24 05:38:07;;;;;;;56.70;34.63;;;;;;;3.00;100.00;98979.98;1683292;84;21534;-72
2022/12/24 05:40:35;;;;;;;47.75;31.27;;;;;;;3.00;100.00;98970.58;1689228;84;21023;-72
2022/12/24 05:43:02;;;;;;;45.35;31.23;;;;;;;3.01;100.00;98972.74;1682848;84;21582;-73
2022/12/24 05:45:28;;;;;;;46.85;32.65;;;;;;;3.01;100.00;98972.74;1685833;84;21055;-72
2022/12/24 05:47:55;;;;;;;;;;;;;;;2.98;100.00;98980.73;1634369;87;21071;-72
2022/12/24 05:50:21;;;;;;;46.92;31.85;;;;;;;2.99;100.00;98989.63;1624828;87;20165;-72
2022/12/24 05:52:48;;;;;;;50.60;33.35;;;;;;;2.94;100.00;98992.23;1642562;87;21091;-72
2022/12/24 05:55:14;;;;;;;52.13;34.83;;;;;;;2.96;100.00;98980.70;1708917;83;21537;-72
2022/12/24 05:57:41;;;;;;;45.48;30.90;;;;;;;3.01;100.00;98984.84;1678701;83;21058;-73
2022/12/24 06:00:08;;;;;;;45.35;30.40;;;;;;;3.03;100.00;98981.89;1717519;83;21030;-72
2022/12/24 06:02:37;;;;;;;45.73;30.85;;;;;;;3.01;100.00;98986.98;1704550;83;21084;-72
2022/12/24 06:05:04;;;;;;;48.80;33.42;;;;;;;2.98;100.00;98987.98;1700967;83;21545;-72
2022/12/24 06:07:31;;;;;;;47.48;30.37;;;;;;;3.00;100.00;98988.58;1677269;84;21026;-72
2022/12/24 06:09:58;;;;;;;44.40;31.20;;;;;;;3.06;100.00;99001.05;1699298;83;21878;-72
2022/12/24 06:12:24;;;;;;;46.80;31.33;;;;;;;3.14;100.00;99007.39;1696462;83;21074;-72
2022/12/24 06:14:50;;;;;;;;;;;;;;;3.21;100.00;99010.75;1725229;83;21580;-72
2022/12/24 06:17:17;;;;;;;51.60;31.50;;;;;;;3.23;100.00;99006.45;1703315;83;20571;-72
2022/12/24 06:19:43;;;;;;;;;;;;;;;3.12;100.00;99011.39;1707294;83;21058;-73
2022/12/24 06:22:10;;;;;;;47.62;31.57;;;;;;;3.07;100.00;99010.76;1701305;83;20154;-73
2022/12/24 06:24:37;;;;;;;49.88;33.30;;;;;;;2.96;100.00;99015.13;1701452;83;21058;-72
2022/12/24 06:27:03;;;;;;;;;;;;;;;3.00;100.00;99010.09;1721244;83;21043;-72
2022/12/24 06:29:30;;;;;;;48.85;29.18;;;;;;;3.09;100.00;99009.98;1672792;85;20107;-72
2022/12/24 06:31:57;;;;;;;45.03;30.55;;;;;;;3.10;100.00;99009.45;1673443;84;21055;-72
2022/12/24 06:34:23;;;;;;;42.78;29.63;;;;;;;3.16;100.00;99011.98;1656372;85;21498;-72
2022/12/24 06:36:51;;;;;;;42.78;30.95;;;;;;;3.18;100.00;99009.89;1646335;86;21141;-73
2022/12/24 06:39:17;;;;;;;45.92;31.17;;;;;;;3.20;100.00;99016.36;1648503;86;21541;-72
2022/12/24 06:41:43;;;;;;;;;;;;;;;3.22;100.00;99012.39;1690798;85;21582;-72
2022/12/24 06:44:10;;;;;;;46.18;30.97;;;;;;;3.30;100.00;99017.87;1684695;84;20117;-71
2022/12/24 06:46:37;;;;;;;46.10;30.55;;;;;;;3.36;100.00;99015.06;1663875;85;21055;-72
2022/12/24 06:49:04;;;;;;;47.08;31.87;;;;;;;3.41;100.00;99012.44;1681345;85;21488;-72
2022/12/24 06:51:31;;;;;;;43.02;30.20;;;;;;;3.43;100.00;99009.00;1677070;85;20992;-72
2022/12/24 06:53:58;;;;;;;51.18;35.43;;;;;;;3.43;100.00;99013.03;1700683;83;21020;-73
2022/12/24 06:56:24;;;;;;;50.52;35.05;;;;;;;3.47;100.00;99019.53;1707975;84;21475;-73
2022/12/24 06:58:50;;;;;;;47.85;33.00;;;;;;;3.55;100.00;99017.50;1688253;84;20976;-73
2022/12/24 07:01:18;;;;;;;46.13;33.35;;;;;;;3.61;100.00;99020.06;1688259;84;21549;-72
2022/12/24 07:03:44;;;;;;;43.58;31.17;;;;;;;3.60;100.00;99021.11;1689789;84;21048;-73
2022/12/24 07:06:23;;;;;;;42.53;29.45;;;;;;;3.57;100.00;99016.22;1688618;84;21573;-73
2022/12/24 07:08:50;;;;;;;43.20;29.27;;;;;;;3.61;100.00;99012.52;1688275;84;20988;-72
2022/12/24 07:11:16;;;;;;;44.55;29.98;;;;;;;3.67;100.00;99011.53;1689511;84;21019;-73
2022/12/24 07:13:43;;;;;;;46.88;31.85;;;;;;;3.68;100.00;99014.52;1684835;84;21043;-73
2022/12/24 07:16:09;;;;;;;48.38;32.42;;;;;;;3.68;100.00;99011.30;1691352;84;21016;-73
2022/12/24 07:18:36;;;;;;;47.85;32.28;;;;;;;3.64;100.00;99016.05;1698588;84;21028;-72
2022/12/24 07:21:06;;;;;;;46.48;31.73;;;;;;;3.64;100.00;99009.33;1693412;84;21628;-73
2022/12/24 07:23:33;;;;;;;44.63;31.27;;;;;;;3.67;100.00;99019.08;1661890;85;21632;-73
2022/12/24 07:26:01;;;;;;;42.43;30.40;;;;;;;3.69;100.00;99010.21;1683266;84;21024;-73
2022/12/24 07:28:28;;;;;;;42.30;29.07;;;;;;;3.67;100.00;99011.00;1685956;84;21063;-73
2022/12/24 07:30:56;;;;;;;41.90;30.92;;;;;;;3.65;100.00;99010.41;1682293;84;21031;-73
2022/12/24 07:33:28;;;;;;;40.92;28.30;;;;;;;3.64;100.00;99005.29;1710115;84;21035;-73
2022/12/24 07:36:04;;;;;;;43.28;28.62;;;;;;;3.66;100.00;99008.54;1696652;84;21027;-72
2022/12/24 07:38:31;;;;;;;41.80;28.35;;;;;;;3.70;100.00;99007.00;1708515;84;21095;-73
2022/12/24 07:40:58;;;;;;;37.30;26.30;;;;;;;3.73;100.00;99004.63;1704703;84;21079;-73
2022/12/24 07:43:25;;;;;;;43.13;31.02;;;;;;;3.70;100.00;99000.27;1687954;84;21595;-73
2022/12/24 07:45:55;;;;;;;42.98;29.65;;;;;;;3.65;100.00;99013.10;1702214;84;21071;-74
2022/12/24 07:48:22;;;;;;;43.58;30.37;;;;;;;3.62;100.00;99004.70;1689844;84;21075;-73
2022/12/24 11:43:44;;;;;;;72.10;45.15;;;;;;;4.04;100.00;99043.61;1763062;78;22980;-73
2022/12/24 11:46:22;;;;;;;63.05;41.88;;;;;;;4.14;100.00;99047.83;1735369;82;21892;-73
2022/12/24 11:48:49;;;;;;;54.88;38.58;;;;;;;4.40;100.00;99051.68;1740065;82;21059;-73
2022/12/24 11:51:22;;;;;;;55.25;37.53;;;;;;;4.59;100.00;99050.87;1678336;82;21102;-73
2022/12/24 11:54:09;;;;;;;48.38;34.43;;;;;;;4.76;100.00;99052.98;1731593;82;21075;-73
2022/12/24 11:56:47;;;;;;;47.50;33.60;;;;;;;4.90;100.00;99044.80;1695498;82;21988;-73
2022/12/24 11:59:36;;;;;;;45.38;32.03;;;;;;;5.05;100.00;99052.25;1716049;82;21055;-76
2022/12/24 12:02:24;;;;;;;46.88;32.90;;;;;;;5.11;100.00;99049.35;1731709;82;21703;-77
2022/12/24 12:04:56;;;;;;;48.05;33.58;;;;;;;5.15;100.00;99055.87;1729599;80;21495;-72
2022/12/24 12:07:29;;;;;;;49.93;33.85;;;;;;;5.22;100.00;99050.28;1721440;82;21067;-72
2022/12/24 12:10:00;;;;;;;45.55;32.80;;;;;;;5.30;100.00;99041.73;1736571;82;21027;-71
2022/12/24 12:12:29;;;;;;;47.27;32.63;;;;;;;5.34;100.00;99042.34;1731258;82;21588;-72
2022/12/24 12:15:04;;;;;;;49.70;34.15;;;;;;;5.34;100.00;99040.98;1739545;82;20986;-73
2022/12/24 12:17:35;;;;;;;48.17;34.83;;;;;;;5.34;100.00;99034.77;1733528;82;21480;-72
2022/12/24 12:20:08;;;;;;;47.53;33.20;;;;;;;5.33;100.00;99032.60;1730270;82;20987;-74
2022/12/24 12:22:46;;;;;;;46.28;32.85;;;;;;;5.31;100.00;99028.53;1731003;82;21457;-73
2022/12/24 12:25:45;;;;;;;48.13;33.00;;;;;;;5.36;100.00;99030.73;1740032;82;21090;-73
2022/12/24 12:28:17;;;;;;;48.98;33.40;;;;;;;5.43;100.00;99029.17;1747879;81;21134;-73
2022/12/24 12:30:43;;;;;;;46.95;33.58;;;;;;;5.39;100.00;99032.10;1738018;82;21533;-73
2022/12/24 12:33:24;;;;;;;48.78;33.85;;;;;;;5.37;100.00;99024.81;1734759;82;21096;-73
2022/12/24 12:35:51;;;;;;;51.77;35.60;;;;;;;5.43;100.00;99023.78;1738814;82;20981;-73
2022/12/24 12:38:23;;;;;;;45.40;32.65;;;;;;;5.48;100.00;99026.01;1750894;82;21037;-73
2022/12/24 12:41:03;;;;;;;46.63;32.42;;;;;;;5.55;100.00;99034.42;1746415;82;21014;-73
2022/12/24 12:44:05;;;;;;;49.67;34.60;;;;;;;5.55;100.00;99035.77;1731473;81;21098;-73
2022/12/24 12:47:05;;;;;;;47.60;33.23;;;;;;;5.47;100.00;99037.05;1728232;82;21454;-73
2022/12/24 12:50:10;;;;;;;44.48;31.68;;;;;;;5.40;100.00;99039.95;1722718;82;21060;-73
2022/12/24 12:53:02;;;;;;;43.52;32.20;;;;;;;5.43;100.00;99045.38;1716557;82;21020;-73
2022/12/24 12:55:52;;;;;;;46.48;33.35;;;;;;;5.46;100.00;99048.37;1715074;82;21039;-73
2022/12/24 12:58:42;;;;;;;47.33;33.53;;;;;;;5.46;100.00;99048.91;1731329;81;21990;-72
2022/12/24 13:01:21;;;;;;;53.50;38.17;;;;;;;5.35;100.00;99044.50;1716787;82;20972;-73
2022/12/24 13:04:23;;;;;;;58.73;40.67;;;;;;;5.23;100.00;99050.04;1710683;82;21052;-73
2022/12/24 13:07:41;;;;;;;52.50;38.80;;;;;;;5.22;100.00;99058.38;1738254;82;21059;-72
2022/12/24 13:10:25;;;;;;;62.25;41.48;;;;;;;5.16;100.00;99054.81;1738241;82;21303;-73
2022/12/24 13:13:43;;;;;;;58.25;40.58;;;;;;;5.07;100.00;99061.71;1715419;82;21024;-72
2022/12/24 13:16:50;;;;;;;61.58;43.70;;;;;;;4.97;100.00;99058.90;1734463;82;20984;-72
2022/12/24 13:19:40;;;;;;;66.95;44.75;;;;;;;4.82;100.00;99060.05;1736715;82;21035;-72
2022/12/24 13:22:15;;;;;;;68.07;45.73;;;;;;;4.78;100.00;99057.61;1723590;82;21510;-72
2022/12/24 13:24:52;;;;;;;63.42;44.55;;;;;;;4.76;100.00;99068.63;1738222;82;21043;-72
2022/12/24 13:27:25;;;;;;;63.23;43.87;;;;;;;4.79;100.00;99067.30;1737237;82;21118;-73
2022/12/24 13:29:58;;;;;;;90.15;57.08;;;;;;;4.82;100.00;99077.58;1735037;82;21056;-72
2022/12/24 13:32:32;;;;;;;70.50;47.13;;;;;;;4.79;100.00;99082.13;1715728;82;21438;-72
2022/12/24 13:35:24;;;;;;;65.25;44.98;;;;;;;4.73;100.00;99087.19;1713877;82;21547;-72
2022/12/24 13:37:51;;;;;;;67.62;47.30;;;;;;;4.75;100.00;99081.81;1723656;82;21061;-72
2022/12/24 13:40:26;;;;;;;68.80;46.45;;;;;;;4.85;100.00;99082.50;1720409;82;20992;-73
2022/12/24 13:43:04;;;;;;;90.05;57.80;;;;;;;4.89;100.00;99087.13;1730774;81;21019;-72
2022/12/24 13:45:42;;;;;;;100.20;68.00;;;;;;;4.82;100.00;99103.20;1744234;82;20959;-73
2022/12/24 13:48:23;;;;;;;96.45;61.88;;;;;;;4.66;100.00;99104.07;1752301;82;21574;-72
2022/12/24 13:50:53;;;;;;;76.72;50.73;;;;;;;4.57;100.00;99105.58;1628980;86;21568;-72
2022/12/24 13:53:43;;;;;;;71.20;48.92;;;;;;;4.49;100.00;99104.94;1722311;83;21522;-72
2022/12/24 13:56:15;;;;;;;65.90;46.02;;;;;;;4.43;100.00;99109.94;1748183;82;21052;-72
2022/12/24 13:58:51;;;;;;;67.20;45.88;;;;;;;4.36;100.00;99114.69;1751603;81;21346;-72
2022/12/24 14:01:20;;;;;;;79.77;53.20;;;;;;;4.28;100.00;99119.70;1737992;82;20999;-72
2022/12/24 14:03:50;;;;;;;87.10;56.65;;;;;;;4.18;100.00;99125.72;1751854;82;21046;-73
2022/12/24 14:06:28;;;;;;;76.82;51.60;;;;;;;4.10;100.00;99136.09;1740843;81;20974;-72
2022/12/24 14:09:15;;;;;;;83.90;54.80;;;;;;;4.09;100.00;99139.31;1730732;82;21022;-72
2022/12/24 14:12:04;;;;;;;71.50;49.77;;;;;;;4.14;100.00;99140.77;1709402;82;21530;-72
2022/12/24 14:14:37;;;;;;;75.17;50.55;;;;;;;4.24;100.00;99144.97;1731666;81;21012;-72
2022/12/24 14:17:24;;;;;;;82.60;52.98;;;;;;;4.28;100.00;99143.42;1722291;83;21107;-73
2022/12/24 14:19:55;;;;;;;86.80;53.45;;;;;;;4.31;100.00;99144.80;1737874;82;20975;-73
2022/12/24 14:22:42;;;;;;;89.42;55.60;;;;;;;4.36;100.00;99151.59;1724483;82;21593;-72
2022/12/24 14:25:19;;;;;;;93.50;58.28;;;;;;;4.44;100.00;99158.75;1752325;82;21027;-73
2022/12/24 14:27:53;;;;;;;88.00;57.03;;;;;;;4.48;100.00;99157.72;1745593;82;21512;-72
2022/12/24 14:30:24;;;;;;;100.97;65.67;;;;;;;4.43;100.00;99153.06;1742260;82;20956;-72
2022/12/24 14:32:51;;;;;;;77.05;50.12;;;;;;;4.42;100.00;99154.67;1729937;82;21057;-72
2022/12/24 14:35:35;;;;;;;75.35;49.90;;;;;;;4.46;100.00;99153.91;1726340;82;20976;-73
2022/12/24 14:38:20;;;;;;;76.72;51.42;;;;;;;4.49;100.00;99153.45;1739255;82;21035;-72
2022/12/24 14:41:13;;;;;;;94.65;57.78;;;;;;;4.53;100.00;99162.39;1733643;82;20955;-72
2022/12/24 14:44:26;;;;;;;115.10;68.83;;;;;;;4.57;100.00;99164.32;1742267;81;21071;-72
2022/12/24 19:07:46;;;;;;;168.70;96.30;;;;;;;1.61;100.00;99325.00;1781829;79;23010;-73
2022/12/24 19:10:12;;;;;;;161.47;96.53;;;;;;;1.67;100.00;99330.80;1749328;82;21074;-73
2022/12/24 19:12:39;;;;;;;147.80;91.17;;;;;;;1.86;100.00;99332.44;1752505;81;21090;-73
2022/12/24 19:15:06;;;;;;;134.43;86.12;;;;;;;2.06;100.00;99339.41;1752873;82;21549;-73
2022/12/24 19:17:34;;;;;;;117.25;75.30;;;;;;;2.24;100.00;99339.38;1748211;82;21019;-73
2022/12/24 19:20:00;;;;;;;109.20;69.42;;;;;;;2.40;100.00;99343.61;1746551;82;21015;-73
2022/12/24 19:22:26;;;;;;;103.87;68.20;;;;;;;2.58;100.00;99340.04;1754345;82;21030;-73
2022/12/24 19:24:53;;;;;;;108.72;69.47;;;;;;;2.75;100.00;99349.59;1754518;82;21040;-73
2022/12/24 19:27:19;;;;;;;106.00;68.87;;;;;;;2.88;100.00;99353.41;1718791;82;21482;-73
2022/12/24 19:29:46;;;;;;;100.00;67.10;;;;;;;3.00;100.00;99356.95;1724678;82;21019;-73
2022/12/24 19:32:13;;;;;;;111.45;73.45;;;;;;;3.09;100.00;99360.10;1724425;83;21464;-73
2022/12/24 19:34:39;;;;;;;108.07;71.35;;;;;;;3.11;100.00;99356.67;1724469;83;21054;-73
2022/12/24 19:37:06;;;;;;;97.88;64.60;;;;;;;3.09;100.00;99365.48;1738356;82;21338;-73
2022/12/24 19:39:32;;;;;;;96.85;63.75;;;;;;;3.12;100.00;99361.01;1746162;82;21051;-73
2022/12/24 19:42:00;;;;;;;132.75;96.75;;;;;;;3.20;100.00;99360.64;1753874;82;20991;-73
2022/12/24 19:44:28;;;;;;;101.87;65.85;;;;;;;3.27;100.00;99364.03;1754636;81;21566;-73
2022/12/24 19:46:55;;;;;;;104.12;71.47;;;;;;;3.30;100.00;99363.05;1721964;82;21490;-73
2022/12/24 19:49:21;;;;;;;103.25;69.25;;;;;;;3.35;100.00;99370.42;1736595;82;21069;-73
2022/12/24 19:51:47;;;;;;;94.85;64.30;;;;;;;3.35;100.00;99369.08;1754512;82;21398;-73
2022/12/24 19:54:14;;;;;;;;;;;;;;;3.32;100.00;99372.24;1757012;82;21046;-73
2022/12/24 19:56:40;;;;;;;103.70;70.83;;;;;;;3.37;100.00;99380.41;1719530;82;20140;-73
2022/12/24 19:59:07;;;;;;;107.00;70.75;;;;;;;3.37;100.00;99381.75;1737266;82;21319;-73
2022/12/24 20:01:34;;;;;;;107.95;72.78;;;;;;;3.41;100.00;99375.69;1750901;82;21637;-73
2022/12/24 20:04:01;;;;;;;109.32;75.85;;;;;;;3.41;100.00;99378.38;1724553;82;21739;-74
2022/12/24 20:06:32;;;;;;;108.75;75.00;;;;;;;3.41;100.00;99383.75;1752775;82;21003;-73